Time;durP1;ratioP1;P1;durP2;ratioP2;P2;SDS_P1;SDS_P2;PMS_P1;PMS_P2;Temp;Humidity;BMP_temperature;BMP_pressure;BME280_temperature;BME280_humidity;BME280_pressure;Samples;Min_cycle;Max_cycle;Signal;HPM_P1;HPM_P2
2022/05/20 00:01:14;;;;;;;2.00;1.80;;;;;;;19.26;44.70;101845.63;4899175;29;20547;-65
2022/05/20 00:03:42;;;;;;;2.60;1.40;;;;;;;19.26;44.79;101851.16;4900318;29;20542;-65
2022/05/20 00:06:11;;;;;;;1.67;1.58;;;;;;;19.27;44.90;101850.88;4915219;29;20059;-65
2022/05/20 00:08:39;;;;;;;1.63;1.30;;;;;;;19.27;45.54;101853.63;4919201;29;20349;-65
2022/05/20 00:11:07;;;;;;;2.17;1.17;;;;;;;19.30;45.34;101855.78;4918414;29;20057;-65
2022/05/20 00:13:35;;;;;;;1.42;1.33;;;;;;;19.21;45.58;101857.63;4919046;29;20052;-65
2022/05/20 00:16:03;;;;;;;1.42;1.20;;;;;;;19.16;45.85;101853.00;4918791;29;20052;-65
2022/05/20 00:18:31;;;;;;;3.15;1.63;;;;;;;19.20;45.91;101859.59;4917785;29;20056;-65
2022/05/20 00:20:59;;;;;;;2.22;1.48;;;;;;;19.14;46.08;101851.66;4917804;29;20060;-65
2022/05/20 00:23:27;;;;;;;2.70;1.58;;;;;;;19.18;46.47;101849.94;4902222;29;20065;-65
2022/05/20 00:25:55;;;;;;;1.30;1.10;;;;;;;19.31;45.52;101851.88;4918486;29;20399;-65
2022/05/20 00:28:28;;;;;;;1.58;1.38;;;;;;;19.32;45.49;101859.06;4901792;29;20058;-65
2022/05/20 00:31:05;;;;;;;3.05;1.73;;;;;;;19.26;46.41;101849.19;4918976;29;20055;-65
2022/05/20 00:33:35;;;;;;;1.13;1.02;;;;;;;19.14;46.78;101857.22;4917671;29;20056;-65
2022/05/20 00:36:04;;;;;;;2.38;1.63;;;;;;;19.26;46.72;101856.72;4917998;29;20067;-66
2022/05/20 00:38:32;;;;;;;1.75;1.65;;;;;;;19.18;47.20;101855.47;4918711;29;20768;-65
2022/05/20 00:41:00;;;;;;;2.50;1.33;;;;;;;19.16;47.37;101849.41;4917399;29;20051;-65
2022/05/20 00:43:36;;;;;;;5.55;1.75;;;;;;;19.11;47.57;101858.66;4917994;29;20052;-65
2022/05/20 00:46:11;;;;;;;3.65;1.55;;;;;;;18.96;48.69;101854.19;4918216;29;20059;-65
2022/05/20 00:48:40;;;;;;;1.67;1.58;;;;;;;18.93;48.71;101849.25;4917799;29;20063;-65
2022/05/20 00:51:35;;;;;;;2.42;1.77;;;;;;;18.90;48.74;101839.59;4917391;29;20056;-65
2022/05/20 00:54:10;;;;;;;1.50;1.40;;;;;;;18.92;48.70;101848.44;4917095;29;20068;-65
2022/05/20 00:57:17;;;;;;;1.30;1.20;;;;;;;18.92;48.72;101845.66;4917509;29;20056;-65
2022/05/20 00:59:55;;;;;;;1.70;1.60;;;;;;;18.81;49.78;101849.75;4917399;29;20059;-65
2022/05/20 01:02:25;;;;;;;1.65;1.50;;;;;;;18.64;50.04;101844.78;4918308;29;20059;-65
2022/05/20 01:04:56;;;;;;;2.67;1.95;;;;;;;18.52;51.21;101836.94;4916683;29;20059;-65
2022/05/20 01:07:26;;;;;;;1.40;1.30;;;;;;;18.53;51.41;101844.16;4917601;29;20496;-65
2022/05/20 01:09:54;;;;;;;2.33;1.70;;;;;;;18.61;51.53;101837.91;4917059;29;20052;-65
2022/05/20 01:12:24;;;;;;;1.65;1.55;;;;;;;18.54;52.07;101838.28;4917909;29;20044;-65
2022/05/20 01:14:52;;;;;;;2.42;1.83;;;;;;;18.47;52.20;101837.88;4917097;29;20048;-65
2022/05/20 01:17:21;;;;;;;1.58;1.48;;;;;;;18.48;52.81;101833.97;4917275;29;20063;-65
2022/05/20 01:19:53;;;;;;;1.70;1.50;;;;;;;18.29;53.31;101820.16;4917019;29;20056;-65
2022/05/20 01:22:30;;;;;;;2.70;1.95;;;;;;;18.24;53.65;101825.78;4916962;29;20056;-65
2022/05/20 01:24:58;;;;;;;2.00;1.80;;;;;;;18.33;53.78;101829.50;4917788;29;20048;-65
2022/05/20 01:27:26;;;;;;;2.50;1.88;;;;;;;18.26;54.52;101824.34;4917171;29;20072;-65
2022/05/20 01:29:54;;;;;;;2.05;1.70;;;;;;;18.32;53.78;101825.09;4917682;29;20051;-65
2022/05/20 01:32:22;;;;;;;2.17;1.60;;;;;;;18.26;54.13;101818.81;4917677;29;20107;-65
2022/05/20 01:34:50;;;;;;;2.40;2.20;;;;;;;18.24;54.32;101820.25;4916894;29;20487;-65
2022/05/20 01:37:18;;;;;;;1.92;1.83;;;;;;;18.18;54.25;101827.00;4917585;29;20048;-65
2022/05/20 01:39:46;;;;;;;3.00;2.00;;;;;;;18.01;55.25;101825.56;4916188;29;20056;-65
2022/05/20 01:42:49;;;;;;;1.98;1.85;;;;;;;17.96;55.68;101825.63;4916674;29;20052;-65
2022/05/20 01:45:46;;;;;;;2.78;1.90;;;;;;;17.90;56.20;101824.06;4840549;29;20054;-65
2022/05/20 01:48:22;;;;;;;6.18;1.92;;;;;;;17.94;55.76;101817.59;4839999;29;20089;-65
2022/05/20 01:50:54;;;;;;;2.50;1.50;;;;;;;18.10;55.48;101820.19;4840342;29;20050;-65
2022/05/20 01:53:35;;;;;;;1.77;1.67;;;;;;;18.03;55.58;101811.41;4874296;29;20059;-65
2022/05/20 01:56:15;;;;;;;2.92;2.20;;;;;;;17.92;56.04;101813.50;4916009;29;20056;-65
2022/05/20 01:59:20;;;;;;;2.42;2.10;;;;;;;17.90;56.29;101813.81;4916628;29;20072;-65
2022/05/20 02:01:58;;;;;;;2.00;1.80;;;;;;;18.01;56.43;101817.25;4869037;29;20407;-65
2022/05/20 02:04:49;;;;;;;2.67;1.80;;;;;;;18.00;56.21;101816.41;4916156;29;20048;-65
2022/05/20 02:07:23;;;;;;;2.75;1.70;;;;;;;17.88;57.23;101818.81;4903836;29;20082;-65
2022/05/20 02:10:01;;;;;;;2.28;2.08;;;;;;;17.76;57.08;101812.91;4915993;29;20059;-65
2022/05/20 02:12:36;;;;;;;1.80;1.70;;;;;;;17.84;57.15;101815.81;4916869;29;20048;-65
2022/05/20 02:15:20;;;;;;;1.90;1.80;;;;;;;17.72;57.60;101813.50;4916489;29;20058;-66
2022/05/20 02:17:58;;;;;;;2.25;2.05;;;;;;;17.59;58.18;101805.94;4917029;29;20063;-65
2022/05/20 02:20:50;;;;;;;1.65;1.55;;;;;;;17.77;57.55;101797.94;4915782;29;20059;-65
2022/05/20 02:23:24;;;;;;;2.67;2.10;;;;;;;17.95;57.34;101807.38;4916508;29;20055;-65
2022/05/20 02:25:57;;;;;;;2.78;1.77;;;;;;;18.04;56.92;101799.19;4916089;29;20044;-65
2022/05/20 02:28:31;;;;;;;1.92;1.83;;;;;;;18.00;57.18;101802.56;4915846;29;20063;-65
2022/05/20 02:30:59;;;;;;;6.20;2.60;;;;;;;17.97;57.74;101807.88;4915815;29;20059;-65
2022/05/20 02:33:28;;;;;;;6.40;2.38;;;;;;;17.94;57.81;101812.06;4898740;29;20052;-65
2022/05/20 02:36:23;;;;;;;6.75;2.22;;;;;;;17.94;57.35;101801.00;4899345;29;20372;-65
2022/05/20 02:38:51;;;;;;;3.05;1.98;;;;;;;17.94;57.41;101805.72;4913647;29;20060;-65
2022/05/20 02:41:19;;;;;;;5.53;1.70;;;;;;;17.87;58.26;101806.09;4915560;29;20052;-65
2022/05/20 02:43:47;;;;;;;3.55;1.88;;;;;;;17.80;58.03;101802.88;4916562;29;20051;-65
2022/05/20 02:46:15;;;;;;;2.08;1.75;;;;;;;17.73;58.48;101795.78;4916064;29;20415;-65
2022/05/20 02:48:43;;;;;;;1.98;1.88;;;;;;;17.69;58.62;101800.25;4915814;29;20504;-65
2022/05/20 02:51:11;;;;;;;2.33;2.13;;;;;;;17.69;58.16;101794.72;4915682;29;20063;-65
2022/05/20 02:53:39;;;;;;;1.65;1.50;;;;;;;17.53;59.04;101796.88;4915021;29;20431;-65
2022/05/20 02:56:07;;;;;;;2.15;1.95;;;;;;;17.52;59.27;101797.19;4916305;29;20063;-65
2022/05/20 03:04:11;;;;;;;2.25;1.80;;;;;;;17.41;59.52;101800.06;4915371;29;20048;-65
2022/05/20 03:06:44;;;;;;;2.97;1.77;;;;;;;17.31;59.53;101794.69;4915128;29;20063;-66
2022/05/20 03:09:14;;;;;;;1.90;1.80;;;;;;;17.24;60.17;101799.75;4916241;29;20480;-66
2022/05/20 03:11:42;;;;;;;1.90;1.80;;;;;;;17.42;59.30;101801.75;4915007;29;20063;-66
2022/05/20 03:14:13;;;;;;;3.00;1.77;;;;;;;17.42;59.14;101798.97;4915132;29;20059;-65
2022/05/20 03:16:42;;;;;;;1.92;1.83;;;;;;;17.39;59.62;101802.31;4915316;29;20134;-66
2022/05/20 03:19:10;;;;;;;2.00;1.80;;;;;;;17.42;59.43;101801.75;4914730;29;20064;-65
2022/05/20 03:21:39;;;;;;;2.50;1.95;;;;;;;17.40;59.97;101812.25;4914557;29;20067;-66
2022/05/20 03:24:08;;;;;;;3.08;1.88;;;;;;;17.28;60.67;101812.72;4915595;29;20059;-66
2022/05/20 03:26:36;;;;;;;3.92;2.15;;;;;;;17.29;60.09;101808.81;4908648;29;20048;-66
2022/05/20 03:29:06;;;;;;;5.07;2.08;;;;;;;17.24;61.04;101811.63;4900330;29;20060;-65
2022/05/20 03:31:36;;;;;;;3.22;1.95;;;;;;;17.30;60.60;101812.41;4900262;29;20072;-66
2022/05/20 03:34:05;;;;;;;2.17;1.98;;;;;;;17.24;60.82;101821.88;4900574;29;20068;-65
2022/05/20 03:36:35;;;;;;;2.95;1.80;;;;;;;17.22;61.23;101818.59;4899812;29;20404;-66
2022/05/20 03:39:03;;;;;;;2.20;2.00;;;;;;;17.31;61.22;101822.34;4900038;29;20115;-65
2022/05/20 03:41:32;;;;;;;2.35;2.03;;;;;;;17.23;61.86;101820.22;4916666;29;20040;-65
2022/05/20 03:44:05;;;;;;;2.20;1.90;;;;;;;17.15;61.44;101830.81;4919010;29;20060;-65
2022/05/20 03:46:33;;;;;;;3.55;1.88;;;;;;;17.07;62.01;101828.72;4915705;29;20515;-65
2022/05/20 03:49:01;;;;;;;2.95;2.38;;;;;;;17.17;61.97;101827.78;4900140;29;20060;-65
2022/05/20 03:51:29;;;;;;;2.40;2.20;;;;;;;17.12;61.98;101828.66;4899932;29;20107;-65
2022/05/20 03:53:57;;;;;;;2.28;2.10;;;;;;;17.16;61.92;101828.91;4899915;29;20056;-65
2022/05/20 03:56:24;;;;;;;3.05;2.00;;;;;;;17.46;60.79;101835.19;4900670;29;20055;-65
2022/05/20 03:58:52;;;;;;;3.08;2.30;;;;;;;17.60;60.71;101833.31;4913215;29;20060;-66
2022/05/20 04:04:07;;;;;;;2.42;2.03;;;;;;;17.42;61.78;101834.94;4918878;29;20056;-64
2022/05/20 04:06:35;;;;;;;2.47;2.20;;;;;;;17.50;61.19;101825.13;4917879;29;20052;-64
2022/05/20 04:09:02;;;;;;;2.83;2.22;;;;;;;17.58;60.88;101834.72;4908367;29;20049;-65
2022/05/20 04:11:31;;;;;;;4.60;2.28;;;;;;;17.58;60.80;101834.72;4899791;29;20059;-65
2022/05/20 04:14:01;;;;;;;3.47;2.03;;;;;;;17.55;60.88;101827.84;4909066;29;20052;-64
2022/05/20 04:16:29;;;;;;;3.55;2.28;;;;;;;17.53;61.50;101835.63;4908691;29;20065;-65
2022/05/20 04:18:57;;;;;;;2.78;2.58;;;;;;;17.54;61.14;101833.69;4899601;29;20059;-65
2022/05/20 04:21:25;;;;;;;2.08;1.80;;;;;;;17.62;61.06;101834.97;4908234;29;20056;-64
2022/05/20 04:23:53;;;;;;;2.25;1.95;;;;;;;17.56;61.00;101839.75;4907645;29;20056;-64
2022/05/20 04:26:21;;;;;;;3.67;2.45;;;;;;;17.65;60.99;101842.69;4901581;29;20412;-67
2022/05/20 04:28:49;;;;;;;2.90;2.30;;;;;;;18.00;60.15;101833.03;4902381;29;20056;-69
2022/05/20 04:31:17;;;;;;;4.28;2.35;;;;;;;18.37;59.48;101838.88;4908309;29;20052;-69
2022/05/20 04:33:45;;;;;;;2.10;1.90;;;;;;;18.48;59.38;101838.69;4918793;29;20047;-70
2022/05/20 04:36:13;;;;;;;2.47;2.28;;;;;;;18.67;58.88;101838.63;4912406;29;20048;-69
2022/05/20 04:38:40;;;;;;;2.00;1.90;;;;;;;18.70;58.14;101838.03;4917230;29;20052;-70
2022/05/20 04:46:59;;;;;;;2.60;2.40;;;;;;;19.00;57.62;101830.25;4909016;29;20052;-70
2022/05/20 04:49:30;;;;;;;2.60;2.38;;;;;;;19.16;57.48;101827.22;4914184;29;20056;-70
2022/05/20 04:52:00;;;;;;;2.55;2.35;;;;;;;19.19;57.08;101834.91;4906037;29;20064;-69
2022/05/20 04:57:29;;;;;;;3.20;2.63;;;;;;;19.33;56.67;101841.31;4912192;29;20176;-70
2022/05/20 05:00:22;;;;;;;2.97;2.50;;;;;;;19.52;56.96;101843.13;4900338;29;20060;-70
2022/05/20 05:02:51;;;;;;;5.30;2.15;;;;;;;19.82;55.50;101843.59;4906802;29;20609;-70
2022/05/20 05:05:25;;;;;;;3.40;2.58;;;;;;;20.02;55.27;101847.03;4912296;29;20052;-69
2022/05/20 05:07:55;;;;;;;3.53;2.13;;;;;;;20.07;54.30;101846.94;4913961;29;20052;-70
2022/05/20 05:10:26;;;;;;;5.43;2.42;;;;;;;20.16;53.71;101847.00;4915378;29;20475;-69
2022/05/20 05:12:54;;;;;;;2.45;2.25;;;;;;;20.14;52.97;101843.72;4912993;29;20060;-69
2022/05/20 05:15:23;;;;;;;1.77;1.67;;;;;;;20.26;52.53;101852.31;4912929;29;20431;-69
2022/05/20 05:18:09;;;;;;;4.03;1.88;;;;;;;20.33;52.41;101853.84;4914845;29;20502;-69
2022/05/20 05:20:55;;;;;;;4.90;2.28;;;;;;;20.42;52.74;101863.03;4902826;29;20059;-69
2022/05/20 05:23:23;;;;;;;2.33;2.13;;;;;;;20.43;52.85;101859.13;4912245;29;20055;-69
2022/05/20 05:25:51;;;;;;;3.65;2.42;;;;;;;20.57;52.22;101850.72;4909905;29;20043;-69
2022/05/20 05:28:20;;;;;;;2.50;2.17;;;;;;;20.53;52.83;101855.28;4916029;29;20052;-69
2022/05/20 05:30:50;;;;;;;2.63;2.42;;;;;;;20.58;53.07;101869.03;4915984;29;20052;-70
2022/05/20 05:33:19;;;;;;;3.47;2.50;;;;;;;20.52;54.64;101864.72;4914951;29;20048;-69
2022/05/20 05:35:47;;;;;;;3.45;2.25;;;;;;;20.53;54.36;101855.28;4916772;29;20059;-70
2022/05/20 05:38:20;;;;;;;3.30;2.78;;;;;;;20.48;49.70;101866.53;4916717;29;20060;-70
2022/05/20 05:40:49;;;;;;;2.40;2.30;;;;;;;20.56;51.56;101876.88;4884414;29;20059;-69
2022/05/20 05:43:17;;;;;;;4.60;2.45;;;;;;;20.78;50.69;101864.09;4917001;29;20044;-70
2022/05/20 05:45:45;;;;;;;2.70;2.47;;;;;;;20.81;49.45;101871.78;4917626;29;20040;-69
2022/05/20 05:48:15;;;;;;;2.53;2.08;;;;;;;20.94;49.11;101870.94;4916287;29;20052;-70
2022/05/20 05:50:44;;;;;;;3.10;2.13;;;;;;;21.15;48.51;101870.34;4916783;29;20496;-70
2022/05/20 05:53:20;;;;;;;2.28;1.92;;;;;;;21.24;47.39;101877.91;4916768;29;20051;-70
2022/05/20 05:55:53;;;;;;;2.85;2.13;;;;;;;21.21;45.41;101871.84;4917303;29;20059;-70
2022/05/20 05:58:22;;;;;;;2.88;2.00;;;;;;;21.32;45.85;101874.34;4917218;29;20052;-70
2022/05/20 06:00:50;;;;;;;3.20;2.08;;;;;;;21.38;44.94;101875.00;4915654;29;20080;-70
2022/05/20 06:03:17;;;;;;;3.33;2.03;;;;;;;21.38;45.27;101873.06;4917105;29;20510;-70
2022/05/20 06:05:45;;;;;;;4.10;1.80;;;;;;;21.52;44.51;101867.38;4916976;29;20044;-70
2022/05/20 06:08:15;;;;;;;3.60;1.88;;;;;;;21.41;44.91;101868.81;4916267;29;20059;-70
2022/05/20 06:10:44;;;;;;;4.40;2.08;;;;;;;21.38;44.23;101873.06;4915715;29;20059;-70
2022/05/20 06:13:13;;;;;;;3.08;1.88;;;;;;;21.54;44.78;101864.22;4916017;29;20051;-70
2022/05/20 06:15:41;;;;;;;2.97;1.65;;;;;;;21.59;43.15;101861.28;4915974;29;20056;-70
2022/05/20 06:18:09;;;;;;;1.85;1.55;;;;;;;21.64;43.31;101875.06;4916133;29;20378;-70
2022/05/20 06:20:37;;;;;;;2.13;1.40;;;;;;;21.62;42.76;101863.44;4915570;29;20400;-70
2022/05/20 06:23:05;;;;;;;2.40;1.55;;;;;;;21.75;41.93;101875.59;4916520;29;20040;-70
2022/05/20 06:25:33;;;;;;;5.25;1.77;;;;;;;21.95;42.23;101873.34;4916018;29;20059;-70
2022/05/20 06:28:12;;;;;;;3.55;1.92;;;;;;;22.02;41.55;101880.09;4915721;29;20404;-70
2022/05/20 06:30:41;;;;;;;2.40;1.52;;;;;;;22.02;41.10;101880.09;4915752;29;20491;-70
2022/05/20 06:33:09;;;;;;;3.67;1.45;;;;;;;21.99;40.95;101879.91;4915793;29;20044;-70
2022/05/20 06:41:11;;;;;;;2.53;1.90;;;;;;;22.19;41.62;101881.22;4915344;29;20052;-70
2022/05/20 06:43:39;;;;;;;1.50;1.40;;;;;;;22.23;41.75;101881.38;4915897;29;20131;-70
2022/05/20 06:46:08;;;;;;;2.05;1.90;;;;;;;22.34;42.02;101873.50;4916370;29;20049;-70
2022/05/20 06:48:50;;;;;;;6.63;2.08;;;;;;;22.33;42.06;101883.03;4916480;29;20063;-70
2022/05/20 06:51:21;;;;;;;2.15;1.58;;;;;;;22.43;41.67;101888.25;4916534;29;20048;-70
2022/05/20 06:53:52;;;;;;;2.60;1.80;;;;;;;22.51;40.98;101890.22;4916306;29;20395;-70
2022/05/20 06:56:22;;;;;;;2.75;1.88;;;;;;;22.42;40.69;101883.81;4916122;29;20052;-70
2022/05/20 06:58:50;;;;;;;1.83;1.73;;;;;;;22.60;40.69;101892.19;4899090;29;20064;-70
2022/05/20 07:01:18;;;;;;;2.40;1.77;;;;;;;22.66;41.13;101888.09;4914847;29;20052;-70
2022/05/20 07:03:46;;;;;;;2.03;1.90;;;;;;;22.76;40.45;101890.53;4915759;29;20076;-70
2022/05/20 07:06:16;;;;;;;3.50;1.75;;;;;;;22.73;40.13;101895.97;4916093;29;20052;-70
2022/05/20 07:08:48;;;;;;;1.90;1.80;;;;;;;22.80;40.28;101888.72;4914972;29;20052;-70
2022/05/20 07:11:18;;;;;;;3.03;1.73;;;;;;;22.95;39.91;101887.38;4916095;29;20052;-70
2022/05/20 07:13:47;;;;;;;3.92;1.88;;;;;;;23.09;39.95;101891.91;4915983;29;20487;-70
2022/05/20 07:16:18;;;;;;;3.38;1.65;;;;;;;22.92;39.74;101893.59;4915356;29;20067;-70
2022/05/20 07:18:46;;;;;;;2.45;1.73;;;;;;;22.99;39.76;101890.31;4915262;29;20052;-70
2022/05/20 07:21:14;;;;;;;3.85;1.98;;;;;;;22.93;39.64;101884.06;4915262;29;20067;-70
2022/05/20 07:23:42;;;;;;;3.88;2.40;;;;;;;22.97;40.13;101889.81;4883074;29;20048;-70
2022/05/20 07:26:10;;;;;;;3.00;2.15;;;;;;;22.98;39.77;101885.88;4916016;29;20392;-70
2022/05/20 07:28:38;;;;;;;5.65;2.33;;;;;;;23.19;39.45;101888.75;4915166;29;20056;-70
2022/05/20 07:31:06;;;;;;;3.03;1.83;;;;;;;23.29;38.58;101884.75;4914550;29;20403;-70
2022/05/20 07:33:37;;;;;;;4.50;2.08;;;;;;;23.37;39.18;101879.50;4915836;29;20041;-70
2022/05/20 07:36:06;;;;;;;3.58;2.60;;;;;;;23.45;38.32;101881.41;4915167;29;20055;-71
2022/05/20 07:38:35;;;;;;;2.38;2.17;;;;;;;23.59;38.69;101883.97;4868108;29;20492;-70
2022/05/20 07:41:03;;;;;;;4.18;2.60;;;;;;;23.70;37.89;101888.00;4915880;29;20051;-70
2022/05/20 07:43:32;;;;;;;3.72;1.90;;;;;;;23.82;37.56;101878.06;4915738;29;20516;-70
2022/05/20 07:46:01;;;;;;;4.32;2.03;;;;;;;23.88;37.33;101880.31;4914755;29;20056;-70
2022/05/20 07:48:30;;;;;;;1.95;1.65;;;;;;;23.87;36.96;101884.28;4914659;29;20056;-70
2022/05/20 07:51:05;;;;;;;2.28;1.45;;;;;;;23.93;36.48;101881.25;4914501;29;20396;-70
2022/05/20 07:53:39;;;;;;;1.83;1.40;;;;;;;23.90;36.18;101877.16;4915002;29;20495;-70
2022/05/20 07:56:14;;;;;;;2.45;2.10;;;;;;;23.91;35.66;101870.44;4914889;29;20060;-71
2022/05/20 07:58:51;;;;;;;1.45;1.25;;;;;;;23.95;35.60;101870.56;4914530;29;20063;-70
2022/05/20 08:01:27;;;;;;;2.40;1.40;;;;;;;24.06;36.26;101870.97;4915720;29;20048;-71
2022/05/20 08:06:46;;;;;;;2.70;1.38;;;;;;;24.24;35.85;101866.09;4915554;29;20055;-70
2022/05/20 08:09:14;;;;;;;1.95;1.38;;;;;;;24.30;35.65;101870.31;4914524;29;20055;-71
2022/05/20 08:11:42;;;;;;;2.03;1.27;;;;;;;24.25;35.10;101862.13;4914263;29;20052;-70
2022/05/20 08:14:10;;;;;;;3.45;1.10;;;;;;;24.32;35.51;101872.75;4916790;29;20048;-70
2022/05/20 08:16:38;;;;;;;2.85;1.30;;;;;;;24.33;34.79;101869.59;4918975;29;20051;-70
2022/05/20 08:19:06;;;;;;;1.67;1.27;;;;;;;24.39;33.95;101864.63;4918769;29;20499;-70
2022/05/20 08:21:34;;;;;;;1.33;1.10;;;;;;;24.53;33.88;101867.94;4918953;29;20051;-70
2022/05/20 08:24:02;;;;;;;2.17;1.30;;;;;;;24.54;33.97;101852.78;4918787;29;20372;-70
2022/05/20 08:26:30;;;;;;;1.33;1.15;;;;;;;24.68;34.69;101852.47;4918948;29;20044;-70
2022/05/20 08:28:59;;;;;;;1.35;1.15;;;;;;;24.69;33.79;101859.69;4901120;29;20055;-70
2022/05/20 08:31:27;;;;;;;2.00;1.80;;;;;;;24.82;33.44;101856.94;4917521;29;20056;-71
2022/05/20 08:33:55;;;;;;;3.13;1.40;;;;;;;25.00;34.19;101856.72;4918799;29;20060;-70
2022/05/20 08:36:24;;;;;;;2.92;1.55;;;;;;;25.04;33.78;101857.66;4917938;29;20519;-70
2022/05/20 08:38:52;;;;;;;4.57;1.38;;;;;;;24.95;33.48;101860.59;4886224;29;20044;-70
2022/05/20 08:41:51;;;;;;;2.65;1.20;;;;;;;25.02;35.69;101843.22;4918642;29;20055;-70
2022/05/20 08:44:21;;;;;;;1.48;1.38;;;;;;;25.23;34.78;101855.09;4916961;29;20044;-70
2022/05/20 08:46:49;;;;;;;1.60;1.50;;;;;;;25.23;34.23;101846.69;4917609;29;20491;-70
2022/05/20 08:49:22;;;;;;;5.68;1.38;;;;;;;25.30;33.23;101853.69;4918428;29;20048;-70
2022/05/20 08:51:53;;;;;;;2.00;1.50;;;;;;;25.38;33.59;101837.94;4918545;29;20052;-70
2022/05/20 08:54:20;;;;;;;1.55;1.45;;;;;;;25.40;33.50;101833.63;4918364;29;20055;-71
2022/05/20 08:56:49;;;;;;;1.45;1.35;;;;;;;25.32;34.32;101851.38;4918309;29;20055;-70
2022/05/20 08:59:20;;;;;;;2.55;1.33;;;;;;;25.41;33.77;101838.03;4918218;29;20480;-70
2022/05/20 09:01:51;;;;;;;1.40;1.30;;;;;;;25.52;34.73;101841.19;4918243;29;20040;-71
2022/05/20 09:04:22;;;;;;;2.08;1.60;;;;;;;25.52;33.28;101830.00;4918535;29;20047;-71
2022/05/20 09:07:05;;;;;;;2.90;1.48;;;;;;;25.66;33.42;101837.22;4918259;29;20044;-70
2022/05/20 09:09:47;;;;;;;1.63;1.27;;;;;;;25.69;32.86;101839.31;4918036;29;20479;-71
2022/05/20 09:12:37;;;;;;;1.83;1.40;;;;;;;25.76;33.38;101831.94;4900423;29;20061;-71
2022/05/20 09:18:13;;;;;;;2.83;1.50;;;;;;;25.99;32.62;101822.16;4917182;29;20058;-70
2022/05/20 09:20:43;;;;;;;2.10;1.90;;;;;;;26.06;32.72;101828.00;4917096;29;20044;-70
2022/05/20 09:23:13;;;;;;;4.10;1.70;;;;;;;26.02;32.90;101825.09;4900351;29;20048;-70
2022/05/20 09:25:48;;;;;;;8.77;2.40;;;;;;;25.94;33.30;101814.81;4916841;29;20524;-71
2022/05/20 09:28:44;;;;;;;11.45;2.40;;;;;;;25.91;32.67;101821.16;4900193;29;20052;-71
2022/05/20 09:31:14;;;;;;;3.00;1.80;;;;;;;26.08;33.67;101813.59;4917515;29;20067;-71
2022/05/20 09:34:14;;;;;;;5.28;2.05;;;;;;;26.14;33.25;101812.16;4916752;29;20381;-71
2022/05/20 09:36:51;;;;;;;2.40;1.73;;;;;;;26.19;32.50;101811.91;4916720;29;20067;-71
2022/05/20 09:39:26;;;;;;;2.88;1.58;;;;;;;26.33;32.93;101808.72;4917588;29;20055;-71
2022/05/20 09:41:56;;;;;;;2.70;1.40;;;;;;;26.38;32.83;101816.88;4917666;29;20052;-71
2022/05/20 09:44:32;;;;;;;5.45;1.83;;;;;;;26.50;33.32;101806.75;4917397;29;20059;-71
2022/05/20 09:47:15;;;;;;;3.33;1.67;;;;;;;26.67;32.76;101806.41;4916594;29;20052;-71
2022/05/20 09:49:53;;;;;;;3.13;1.40;;;;;;;26.77;32.53;101796.59;4916999;29;20059;-71
2022/05/20 09:52:41;;;;;;;2.78;1.67;;;;;;;26.83;32.32;101792.34;4916696;29;20055;-70
2022/05/20 09:55:22;;;;;;;4.45;1.85;;;;;;;26.67;32.24;101791.53;4916793;29;20067;-70
2022/05/20 09:57:53;;;;;;;2.80;1.80;;;;;;;26.68;32.74;101795.97;4916424;29;20070;-71
2022/05/20 10:00:26;;;;;;;3.17;1.70;;;;;;;26.73;32.83;101798.50;4900056;29;20519;-70
2022/05/20 10:03:11;;;;;;;3.72;1.70;;;;;;;26.73;32.75;101790.09;4916210;29;20056;-71
2022/05/20 10:05:42;;;;;;;2.10;1.70;;;;;;;26.69;33.29;101784.38;4917134;29;20063;-71
2022/05/20 10:08:12;;;;;;;2.03;1.83;;;;;;;26.86;33.77;101776.78;4916037;29;20052;-71
2022/05/20 10:10:52;;;;;;;4.95;1.92;;;;;;;26.97;34.00;101779.84;4917049;29;20515;-70
2022/05/20 10:13:39;;;;;;;2.30;2.10;;;;;;;27.04;33.81;101780.03;4916350;29;20056;-71
2022/05/20 10:16:21;;;;;;;1.98;1.70;;;;;;;26.94;34.49;101780.59;4915640;29;20056;-71
2022/05/20 10:19:00;;;;;;;3.15;1.80;;;;;;;27.14;34.36;101769.41;4916097;29;20052;-70
2022/05/20 10:21:46;;;;;;;1.85;1.75;;;;;;;27.08;34.94;101769.69;4897027;29;20071;-70
2022/05/20 10:24:26;;;;;;;3.55;1.85;;;;;;;27.17;34.32;101761.06;4902275;29;20052;-71
2022/05/20 10:27:08;;;;;;;2.90;1.90;;;;;;;27.35;34.25;101769.91;4915347;29;20064;-70
2022/05/20 10:32:43;;;;;;;4.40;1.90;;;;;;;27.64;33.82;101747.22;4897801;29;20053;-71
2022/05/20 10:35:19;;;;;;;1.50;1.33;;;;;;;27.56;33.89;101743.44;4897378;29;20051;-71
2022/05/20 10:38:20;;;;;;;3.35;1.65;;;;;;;27.68;34.33;101739.69;4879462;29;20056;-71
2022/05/20 10:41:12;;;;;;;5.28;2.70;;;;;;;27.83;34.89;101746.41;4913316;29;20052;-71
2022/05/20 10:50:25;;;;;;;2.70;2.50;;;;;;;28.20;33.22;101727.38;4915406;29;20052;-71
2022/05/20 10:53:14;;;;;;;3.67;2.75;;;;;;;28.12;33.28;101724.47;4900549;29;20060;-71
2022/05/20 10:55:54;;;;;;;1.63;1.52;;;;;;;28.30;34.27;101718.34;4915035;29;20048;-70
2022/05/20 10:59:00;;;;;;;2.10;1.90;;;;;;;28.51;34.24;101722.72;4915148;29;20059;-70
2022/05/20 11:01:53;;;;;;;2.53;2.33;;;;;;;28.78;33.15;101719.94;4899392;29;20055;-70
2022/05/20 11:04:40;;;;;;;2.85;2.55;;;;;;;28.90;33.42;101711.28;4916386;29;20048;-70
2022/05/20 11:07:49;;;;;;;2.58;2.13;;;;;;;28.97;34.01;101716.19;4899530;29;20464;-71
2022/05/20 11:10:52;;;;;;;2.53;2.22;;;;;;;28.94;32.48;101706.50;4916130;29;20060;-70
2022/05/20 11:13:52;;;;;;;2.63;2.40;;;;;;;29.05;32.81;101695.41;4916090;29;20052;-71
2022/05/20 11:16:37;;;;;;;3.03;2.25;;;;;;;29.01;32.50;101704.97;4916037;29;20060;-70
2022/05/20 11:19:25;;;;;;;2.15;1.95;;;;;;;28.91;33.30;101701.63;4915888;29;20059;-70
2022/05/20 11:22:13;;;;;;;2.70;2.50;;;;;;;28.89;32.35;101692.75;4904518;29;20067;-71
2022/05/20 11:24:56;;;;;;;3.70;2.78;;;;;;;29.12;33.07;101696.69;4915991;29;20047;-70
2022/05/20 11:27:45;;;;;;;3.53;2.10;;;;;;;29.33;32.56;101693.31;4915828;29;20396;-70
2022/05/20 11:30:40;;;;;;;3.25;2.60;;;;;;;29.43;32.72;101698.28;4890815;29;20400;-70
2022/05/20 11:33:26;;;;;;;3.45;2.90;;;;;;;29.59;32.16;101700.91;4915178;29;20399;-70
2022/05/20 11:36:52;;;;;;;5.65;2.85;;;;;;;29.60;31.65;101681.97;4914759;29;20052;-70
2022/05/20 11:39:32;;;;;;;3.72;2.20;;;;;;;29.53;32.58;101679.09;4820895;29;20071;-70
2022/05/20 11:42:15;;;;;;;2.45;2.20;;;;;;;29.56;32.13;101667.84;4915782;29;20044;-71
2022/05/20 11:45:10;;;;;;;2.38;2.15;;;;;;;29.66;32.08;101657.88;4912983;29;20068;-71
2022/05/20 11:47:38;;;;;;;3.22;2.33;;;;;;;29.73;32.33;101665.59;4898472;29;20055;-70
2022/05/20 11:50:12;;;;;;;2.38;2.10;;;;;;;29.84;31.71;101657.25;4901866;29;20071;-70
2022/05/20 11:52:49;;;;;;;3.38;2.42;;;;;;;30.03;32.21;101662.69;4901089;29;20056;-70
2022/05/20 11:55:21;;;;;;;4.03;2.45;;;;;;;30.11;32.23;101657.91;4919074;29;20040;-70
2022/05/20 11:58:03;;;;;;;2.65;2.45;;;;;;;30.15;32.71;101652.31;4895948;29;20067;-70
2022/05/20 12:00:35;;;;;;;3.00;2.50;;;;;;;30.04;31.28;101655.00;4898440;29;20048;-70
2022/05/20 12:03:12;;;;;;;3.28;2.00;;;;;;;30.24;32.38;101652.78;4916783;29;20044;-70
2022/05/20 12:05:46;;;;;;;2.20;2.00;;;;;;;30.41;31.07;101648.47;4896683;29;20060;-71
2022/05/20 12:08:56;;;;;;;3.60;2.00;;;;;;;30.57;31.15;101641.72;4904687;29;20064;-71
2022/05/20 12:11:35;;;;;;;2.60;2.40;;;;;;;30.74;31.86;101643.03;4891614;29;20048;-70
2022/05/20 12:14:16;;;;;;;3.05;2.00;;;;;;;30.56;31.28;101643.72;4910940;29;20052;-71
2022/05/20 12:17:02;;;;;;;2.30;2.10;;;;;;;30.63;31.53;101634.50;4916631;29;20440;-70
2022/05/20 12:25:58;;;;;;;2.88;2.55;;;;;;;30.96;31.55;101627.03;4897450;29;20056;-70
2022/05/20 12:28:25;;;;;;;2.95;2.58;;;;;;;31.07;31.67;101627.06;4903799;29;20048;-70
2022/05/20 12:31:24;;;;;;;2.17;2.08;;;;;;;31.11;31.22;101616.59;4903293;29;20714;-70
2022/05/20 12:34:06;;;;;;;3.22;2.47;;;;;;;31.22;30.94;101615.81;4893087;29;20056;-71
2022/05/20 12:36:38;;;;;;;4.47;2.25;;;;;;;31.32;30.44;101609.41;4889067;29;20636;-71
2022/05/20 12:39:09;;;;;;;2.38;2.20;;;;;;;31.21;30.17;101609.34;4906005;29;20059;-70
2022/05/20 12:41:58;;;;;;;2.55;2.20;;;;;;;31.24;31.18;101602.09;4898953;29;21550;-70